Terminal Aerodrome Forecast
Issued by NWS

Home | Current Version | Previous Version | Graphics & Text | Print | Product List | Glossary On
Versions: 1 2 3 4 5 6 7 8 9 10 11 12 13
582
FTUS43 KMPX 240529
TAFRWF
TAF
KRWF 240529Z 2406/2506 VRB03KT P6SM VCTS SCT015CB BKN060
      TEMPO 2406/2408 BKN015CB
     FM240800 29006KT P6SM SCT020 BKN250
     FM241700 31012G18KT P6SM FEW250
     FM250100 30004KT P6SM SKC=

USA.gov is the U.S. government's official web portal to all federal, state and local government web resources and services.